sensor_id;sensor_type;location;lat;lon;timestamp;P1;durP1;ratioP1;P2;durP2;ratioP2
51925;SDS011;37952;51.938;15.480;2022-07-26T00:00:04;7.40;;;6.90;;
51925;SDS011;37952;51.938;15.480;2022-07-26T00:03:27;7.30;;;6.90;;
51925;SDS011;37952;51.938;15.480;2022-07-26T00:06:30;7.80;;;7.20;;
51925;SDS011;37952;51.938;15.480;2022-07-26T00:09:33;6.90;;;6.50;;
51925;SDS011;37952;51.938;15.480;2022-07-26T00:12:37;7.60;;;7.00;;
51925;SDS011;37952;51.938;15.480;2022-07-26T00:15:40;7.20;;;6.60;;
51925;SDS011;37952;51.938;15.480;2022-07-26T00:18:43;8.00;;;7.40;;
51925;SDS011;37952;51.938;15.480;2022-07-26T00:21:47;7.80;;;7.20;;
51925;SDS011;37952;51.938;15.480;2022-07-26T00:24:49;7.40;;;6.90;;
51925;SDS011;37952;51.938;15.480;2022-07-26T00:27:53;8.10;;;7.50;;
51925;SDS011;37952;51.938;15.480;2022-07-26T00:30:56;7.90;;;7.40;;
51925;SDS011;37952;51.938;15.480;2022-07-26T00:33:59;9.30;;;8.50;;
51925;SDS011;37952;51.938;15.480;2022-07-26T00:37:02;8.50;;;7.50;;
51925;SDS011;37952;51.938;15.480;2022-07-26T00:40:05;9.00;;;7.50;;
51925;SDS011;37952;51.938;15.480;2022-07-26T00:43:10;7.70;;;7.30;;
51925;SDS011;37952;51.938;15.480;2022-07-26T00:46:13;8.30;;;7.90;;
51925;SDS011;37952;51.938;15.480;2022-07-26T00:49:16;8.30;;;7.80;;
51925;SDS011;37952;51.938;15.480;2022-07-26T00:52:19;8.50;;;8.00;;
51925;SDS011;37952;51.938;15.480;2022-07-26T00:55:22;8.00;;;7.40;;
51925;SDS011;37952;51.938;15.480;2022-07-26T00:58:25;7.70;;;7.20;;
51925;SDS011;37952;51.938;15.480;2022-07-26T01:01:28;7.80;;;7.30;;
51925;SDS011;37952;51.938;15.480;2022-07-26T01:04:31;8.00;;;7.50;;
51925;SDS011;37952;51.938;15.480;2022-07-26T01:07:35;8.60;;;6.80;;
51925;SDS011;37952;51.938;15.480;2022-07-26T01:10:40;8.20;;;7.70;;
51925;SDS011;37952;51.938;15.480;2022-07-26T01:13:49;6.20;;;5.80;;
51925;SDS011;37952;51.938;15.480;2022-07-26T01:16:53;8.20;;;6.50;;
51925;SDS011;37952;51.938;15.480;2022-07-26T01:20:04;6.40;;;5.90;;
51925;SDS011;37952;51.938;15.480;2022-07-26T01:23:08;6.00;;;5.60;;
51925;SDS011;37952;51.938;15.480;2022-07-26T01:26:11;4.80;;;4.60;;
51925;SDS011;37952;51.938;15.480;2022-07-26T01:29:15;5.50;;;5.10;;
51925;SDS011;37952;51.938;15.480;2022-07-26T01:32:18;5.00;;;4.60;;
51925;SDS011;37952;51.938;15.480;2022-07-26T01:35:21;4.60;;;4.20;;
51925;SDS011;37952;51.938;15.480;2022-07-26T01:38:25;4.80;;;4.50;;
51925;SDS011;37952;51.938;15.480;2022-07-26T01:41:28;4.80;;;4.30;;
51925;SDS011;37952;51.938;15.480;2022-07-26T01:44:40;4.40;;;4.00;;
51925;SDS011;37952;51.938;15.480;2022-07-26T01:47:42;3.80;;;3.60;;
51925;SDS011;37952;51.938;15.480;2022-07-26T01:50:51;3.90;;;3.70;;
51925;SDS011;37952;51.938;15.480;2022-07-26T01:53:54;4.30;;;4.00;;
51925;SDS011;37952;51.938;15.480;2022-07-26T01:56:57;5.90;;;3.40;;
51925;SDS011;37952;51.938;15.480;2022-07-26T02:00:00;4.40;;;4.10;;
51925;SDS011;37952;51.938;15.480;2022-07-26T02:03:04;3.70;;;3.50;;
51925;SDS011;37952;51.938;15.480;2022-07-26T02:06:07;7.70;;;3.60;;
51925;SDS011;37952;51.938;15.480;2022-07-26T02:09:13;4.30;;;4.00;;
51925;SDS011;37952;51.938;15.480;2022-07-26T02:12:16;5.30;;;3.70;;
51925;SDS011;37952;51.938;15.480;2022-07-26T02:15:19;3.80;;;3.50;;
51925;SDS011;37952;51.938;15.480;2022-07-26T02:18:22;4.00;;;3.80;;
51925;SDS011;37952;51.938;15.480;2022-07-26T02:21:25;3.60;;;3.30;;
51925;SDS011;37952;51.938;15.480;2022-07-26T02:24:28;3.30;;;3.10;;
51925;SDS011;37952;51.938;15.480;2022-07-26T02:27:31;3.50;;;3.20;;
51925;SDS011;37952;51.938;15.480;2022-07-26T02:30:34;3.40;;;3.10;;
51925;SDS011;37952;51.938;15.480;2022-07-26T02:33:38;3.20;;;3.00;;
51925;SDS011;37952;51.938;15.480;2022-07-26T02:36:41;3.50;;;3.10;;
51925;SDS011;37952;51.938;15.480;2022-07-26T02:39:44;2.30;;;2.20;;
51925;SDS011;37952;51.938;15.480;2022-07-26T02:42:47;2.50;;;2.40;;
51925;SDS011;37952;51.938;15.480;2022-07-26T02:45:50;2.80;;;2.60;;
51925;SDS011;37952;51.938;15.480;2022-07-26T02:49:03;5.20;;;2.70;;
51925;SDS011;37952;51.938;15.480;2022-07-26T02:52:07;2.60;;;2.40;;
51925;SDS011;37952;51.938;15.480;2022-07-26T02:55:09;3.40;;;3.00;;
51925;SDS011;37952;51.938;15.480;2022-07-26T02:58:13;2.10;;;2.00;;
51925;SDS011;37952;51.938;15.480;2022-07-26T03:01:16;2.80;;;2.60;;
51925;SDS011;37952;51.938;15.480;2022-07-26T03:04:19;3.00;;;2.80;;
51925;SDS011;37952;51.938;15.480;2022-07-26T03:07:22;2.80;;;2.70;;
51925;SDS011;37952;51.938;15.480;2022-07-26T03:10:25;2.60;;;2.40;;
51925;SDS011;37952;51.938;15.480;2022-07-26T03:13:28;2.10;;;1.90;;
51925;SDS011;37952;51.938;15.480;2022-07-26T03:16:31;2.30;;;2.10;;
51925;SDS011;37952;51.938;15.480;2022-07-26T03:19:35;4.00;;;2.20;;
51925;SDS011;37952;51.938;15.480;2022-07-26T03:22:37;2.00;;;1.90;;
51925;SDS011;37952;51.938;15.480;2022-07-26T03:25:40;2.00;;;1.90;;
51925;SDS011;37952;51.938;15.480;2022-07-26T03:28:44;1.60;;;1.50;;
51925;SDS011;37952;51.938;15.480;2022-07-26T03:31:47;2.80;;;1.70;;
51925;SDS011;37952;51.938;15.480;2022-07-26T03:34:51;1.70;;;1.60;;
51925;SDS011;37952;51.938;15.480;2022-07-26T03:37:53;1.40;;;1.30;;
51925;SDS011;37952;51.938;15.480;2022-07-26T03:40:57;1.80;;;1.50;;
51925;SDS011;37952;51.938;15.480;2022-07-26T03:43:59;2.20;;;1.90;;
51925;SDS011;37952;51.938;15.480;2022-07-26T03:47:03;2.30;;;1.90;;
51925;SDS011;37952;51.938;15.480;2022-07-26T03:50:06;3.00;;;1.80;;
51925;SDS011;37952;51.938;15.480;2022-07-26T03:53:12;2.90;;;2.10;;
51925;SDS011;37952;51.938;15.480;2022-07-26T03:56:15;1.90;;;1.80;;
51925;SDS011;37952;51.938;15.480;2022-07-26T03:59:30;1.90;;;1.70;;
51925;SDS011;37952;51.938;15.480;2022-07-26T04:02:33;1.90;;;1.80;;
51925;SDS011;37952;51.938;15.480;2022-07-26T04:05:36;2.30;;;2.10;;
51925;SDS011;37952;51.938;15.480;2022-07-26T04:08:39;2.20;;;1.80;;
51925;SDS011;37952;51.938;15.480;2022-07-26T04:11:42;1.80;;;1.70;;
51925;SDS011;37952;51.938;15.480;2022-07-26T04:14:45;1.60;;;1.50;;
51925;SDS011;37952;51.938;15.480;2022-07-26T04:17:48;5.50;;;1.80;;
51925;SDS011;37952;51.938;15.480;2022-07-26T04:20:52;2.10;;;1.90;;
51925;SDS011;37952;51.938;15.480;2022-07-26T04:23:55;1.70;;;1.60;;
51925;SDS011;37952;51.938;15.480;2022-07-26T04:26:57;3.20;;;3.00;;
51925;SDS011;37952;51.938;15.480;2022-07-26T04:30:01;2.90;;;1.90;;
51925;SDS011;37952;51.938;15.480;2022-07-26T04:33:04;1.80;;;1.70;;
51925;SDS011;37952;51.938;15.480;2022-07-26T04:36:07;2.10;;;2.00;;
51925;SDS011;37952;51.938;15.480;2022-07-26T04:39:10;1.90;;;1.80;;
51925;SDS011;37952;51.938;15.480;2022-07-26T04:42:13;2.20;;;2.00;;
51925;SDS011;37952;51.938;15.480;2022-07-26T04:45:16;1.80;;;1.70;;
51925;SDS011;37952;51.938;15.480;2022-07-26T04:48:20;2.60;;;2.00;;
51925;SDS011;37952;51.938;15.480;2022-07-26T04:51:23;1.60;;;1.50;;
51925;SDS011;37952;51.938;15.480;2022-07-26T04:54:28;3.30;;;1.80;;
51925;SDS011;37952;51.938;15.480;2022-07-26T04:57:31;2.10;;;1.90;;
51925;SDS011;37952;51.938;15.480;2022-07-26T05:00:35;1.80;;;1.70;;
51925;SDS011;37952;51.938;15.480;2022-07-26T05:03:59;2.60;;;2.10;;
51925;SDS011;37952;51.938;15.480;2022-07-26T05:07:02;4.50;;;2.30;;
51925;SDS011;37952;51.938;15.480;2022-07-26T05:10:08;1.80;;;1.70;;
51925;SDS011;37952;51.938;15.480;2022-07-26T05:13:17;2.00;;;1.90;;
51925;SDS011;37952;51.938;15.480;2022-07-26T05:16:34;3.60;;;2.00;;
51925;SDS011;37952;51.938;15.480;2022-07-26T05:19:46;1.90;;;1.70;;
51925;SDS011;37952;51.938;15.480;2022-07-26T05:22:56;2.60;;;1.80;;
51925;SDS011;37952;51.938;15.480;2022-07-26T05:26:03;3.60;;;1.90;;
51925;SDS011;37952;51.938;15.480;2022-07-26T05:29:08;2.90;;;1.70;;
51925;SDS011;37952;51.938;15.480;2022-07-26T05:32:12;2.20;;;1.90;;
51925;SDS011;37952;51.938;15.480;2022-07-26T05:35:19;2.50;;;1.70;;
51925;SDS011;37952;51.938;15.480;2022-07-26T05:38:22;1.60;;;1.50;;
51925;SDS011;37952;51.938;15.480;2022-07-26T05:41:30;2.90;;;1.70;;
51925;SDS011;37952;51.938;15.480;2022-07-26T05:44:39;2.40;;;1.80;;
51925;SDS011;37952;51.938;15.480;2022-07-26T05:47:57;3.20;;;2.00;;
51925;SDS011;37952;51.938;15.480;2022-07-26T05:51:32;2.30;;;2.10;;
51925;SDS011;37952;51.938;15.480;2022-07-26T05:54:37;2.40;;;2.30;;
51925;SDS011;37952;51.938;15.480;2022-07-26T05:57:40;3.30;;;2.50;;
51925;SDS011;37952;51.938;15.480;2022-07-26T06:00:43;3.50;;;3.00;;
51925;SDS011;37952;51.938;15.480;2022-07-26T06:03:50;2.60;;;2.40;;
51925;SDS011;37952;51.938;15.480;2022-07-26T06:06:53;3.40;;;2.50;;
51925;SDS011;37952;51.938;15.480;2022-07-26T06:09:57;6.90;;;2.90;;
51925;SDS011;37952;51.938;15.480;2022-07-26T06:13:00;2.80;;;2.60;;
51925;SDS011;37952;51.938;15.480;2022-07-26T06:16:03;2.80;;;2.60;;
51925;SDS011;37952;51.938;15.480;2022-07-26T06:19:06;5.30;;;3.00;;
51925;SDS011;37952;51.938;15.480;2022-07-26T06:22:09;2.90;;;2.60;;
51925;SDS011;37952;51.938;15.480;2022-07-26T06:25:12;2.70;;;2.50;;
51925;SDS011;37952;51.938;15.480;2022-07-26T06:28:15;3.60;;;2.90;;
51925;SDS011;37952;51.938;15.480;2022-07-26T06:31:18;2.80;;;2.70;;
51925;SDS011;37952;51.938;15.480;2022-07-26T06:34:21;2.50;;;2.40;;
51925;SDS011;37952;51.938;15.480;2022-07-26T06:37:25;2.40;;;2.20;;
51925;SDS011;37952;51.938;15.480;2022-07-26T06:40:28;3.20;;;2.90;;
51925;SDS011;37952;51.938;15.480;2022-07-26T06:43:31;3.30;;;3.10;;
51925;SDS011;37952;51.938;15.480;2022-07-26T06:46:34;2.80;;;2.60;;
51925;SDS011;37952;51.938;15.480;2022-07-26T06:49:37;2.60;;;2.40;;
51925;SDS011;37952;51.938;15.480;2022-07-26T06:52:41;2.90;;;2.70;;
51925;SDS011;37952;51.938;15.480;2022-07-26T06:55:50;2.30;;;2.10;;
51925;SDS011;37952;51.938;15.480;2022-07-26T06:58:53;2.40;;;2.30;;
51925;SDS011;37952;51.938;15.480;2022-07-26T07:01:59;2.60;;;2.40;;
51925;SDS011;37952;51.938;15.480;2022-07-26T07:05:03;3.80;;;2.50;;
51925;SDS011;37952;51.938;15.480;2022-07-26T07:08:07;2.70;;;2.50;;
51925;SDS011;37952;51.938;15.480;2022-07-26T07:11:11;2.80;;;2.20;;
51925;SDS011;37952;51.938;15.480;2022-07-26T07:14:15;3.90;;;2.50;;
51925;SDS011;37952;51.938;15.480;2022-07-26T07:17:18;5.40;;;2.80;;
51925;SDS011;37952;51.938;15.480;2022-07-26T07:20:22;4.60;;;2.40;;
51925;SDS011;37952;51.938;15.480;2022-07-26T07:23:25;2.40;;;2.20;;
51925;SDS011;37952;51.938;15.480;2022-07-26T07:26:28;2.50;;;2.30;;
51925;SDS011;37952;51.938;15.480;2022-07-26T07:29:31;2.20;;;2.00;;
51925;SDS011;37952;51.938;15.480;2022-07-26T07:32:34;2.00;;;1.90;;
51925;SDS011;37952;51.938;15.480;2022-07-26T07:35:37;3.20;;;2.00;;
51925;SDS011;37952;51.938;15.480;2022-07-26T07:38:40;2.80;;;2.50;;
51925;SDS011;37952;51.938;15.480;2022-07-26T07:41:44;2.40;;;2.20;;
51925;SDS011;37952;51.938;15.480;2022-07-26T07:44:47;2.50;;;2.20;;
51925;SDS011;37952;51.938;15.480;2022-07-26T07:47:51;1.90;;;1.80;;
51925;SDS011;37952;51.938;15.480;2022-07-26T07:50:54;8.30;;;1.90;;
51925;SDS011;37952;51.938;15.480;2022-07-26T07:53:57;1.90;;;1.70;;
51925;SDS011;37952;51.938;15.480;2022-07-26T07:57:06;3.40;;;1.80;;
51925;SDS011;37952;51.938;15.480;2022-07-26T08:00:09;2.60;;;1.90;;
51925;SDS011;37952;51.938;15.480;2022-07-26T08:03:17;4.50;;;1.90;;
51925;SDS011;37952;51.938;15.480;2022-07-26T08:06:20;3.10;;;1.70;;
51925;SDS011;37952;51.938;15.480;2022-07-26T08:09:24;3.10;;;1.70;;
51925;SDS011;37952;51.938;15.480;2022-07-26T08:12:30;4.80;;;1.80;;
51925;SDS011;37952;51.938;15.480;2022-07-26T08:15:35;1.30;;;1.20;;
51925;SDS011;37952;51.938;15.480;2022-07-26T08:18:41;1.80;;;1.40;;
51925;SDS011;37952;51.938;15.480;2022-07-26T08:21:58;3.10;;;1.50;;
51925;SDS011;37952;51.938;15.480;2022-07-26T08:25:06;4.00;;;1.50;;
51925;SDS011;37952;51.938;15.480;2022-07-26T08:28:09;2.10;;;1.30;;
51925;SDS011;37952;51.938;15.480;2022-07-26T08:31:33;1.70;;;1.10;;
51925;SDS011;37952;51.938;15.480;2022-07-26T08:34:36;1.50;;;0.80;;
51925;SDS011;37952;51.938;15.480;2022-07-26T08:37:39;2.20;;;1.10;;
51925;SDS011;37952;51.938;15.480;2022-07-26T08:40:43;6.30;;;0.90;;
51925;SDS011;37952;51.938;15.480;2022-07-26T08:43:46;3.20;;;1.30;;
51925;SDS011;37952;51.938;15.480;2022-07-26T08:46:54;1.00;;;0.90;;
51925;SDS011;37952;51.938;15.480;2022-07-26T08:49:58;1.90;;;0.90;;
51925;SDS011;37952;51.938;15.480;2022-07-26T08:53:03;2.30;;;1.00;;
51925;SDS011;37952;51.938;15.480;2022-07-26T08:56:10;1.40;;;0.90;;
51925;SDS011;37952;51.938;15.480;2022-07-26T08:59:15;1.60;;;1.20;;
51925;SDS011;37952;51.938;15.480;2022-07-26T09:02:34;2.20;;;1.50;;
51925;SDS011;37952;51.938;15.480;2022-07-26T09:05:41;2.80;;;1.20;;
51925;SDS011;37952;51.938;15.480;2022-07-26T09:08:45;1.90;;;1.10;;
51925;SDS011;37952;51.938;15.480;2022-07-26T09:11:49;4.10;;;1.10;;
51925;SDS011;37952;51.938;15.480;2022-07-26T09:14:53;1.60;;;1.00;;
51925;SDS011;37952;51.938;15.480;2022-07-26T09:17:56;1.90;;;1.30;;
51925;SDS011;37952;51.938;15.480;2022-07-26T09:20:59;2.60;;;1.20;;
51925;SDS011;37952;51.938;15.480;2022-07-26T09:24:04;2.50;;;1.30;;
51925;SDS011;37952;51.938;15.480;2022-07-26T09:27:09;1.90;;;1.20;;
51925;SDS011;37952;51.938;15.480;2022-07-26T09:30:14;5.00;;;1.40;;
51925;SDS011;37952;51.938;15.480;2022-07-26T09:33:23;1.60;;;1.30;;
51925;SDS011;37952;51.938;15.480;2022-07-26T09:36:28;1.40;;;1.00;;
51925;SDS011;37952;51.938;15.480;2022-07-26T09:39:31;1.30;;;1.20;;
51925;SDS011;37952;51.938;15.480;2022-07-26T09:42:35;3.40;;;1.40;;
51925;SDS011;37952;51.938;15.480;2022-07-26T09:45:39;4.20;;;1.20;;
51925;SDS011;37952;51.938;15.480;2022-07-26T09:48:42;4.00;;;1.30;;
51925;SDS011;37952;51.938;15.480;2022-07-26T09:52:17;2.00;;;1.10;;
51925;SDS011;37952;51.938;15.480;2022-07-26T09:55:21;3.00;;;1.20;;
51925;SDS011;37952;51.938;15.480;2022-07-26T09:58:27;1.90;;;1.30;;
51925;SDS011;37952;51.938;15.480;2022-07-26T10:01:32;1.20;;;1.10;;
51925;SDS011;37952;51.938;15.480;2022-07-26T10:04:35;1.20;;;1.00;;
51925;SDS011;37952;51.938;15.480;2022-07-26T10:07:39;2.50;;;1.20;;
51925;SDS011;37952;51.938;15.480;2022-07-26T10:10:42;3.10;;;0.90;;
51925;SDS011;37952;51.938;15.480;2022-07-26T10:13:49;2.40;;;1.10;;
51925;SDS011;37952;51.938;15.480;2022-07-26T10:16:53;1.50;;;1.00;;
51925;SDS011;37952;51.938;15.480;2022-07-26T10:19:56;5.30;;;0.90;;
51925;SDS011;37952;51.938;15.480;2022-07-26T10:23:03;2.30;;;1.30;;
51925;SDS011;37952;51.938;15.480;2022-07-26T10:26:07;2.90;;;1.30;;
51925;SDS011;37952;51.938;15.480;2022-07-26T10:29:29;1.40;;;1.00;;
51925;SDS011;37952;51.938;15.480;2022-07-26T10:32:32;1.50;;;1.00;;
51925;SDS011;37952;51.938;15.480;2022-07-26T10:35:38;2.00;;;1.00;;
51925;SDS011;37952;51.938;15.480;2022-07-26T10:38:56;4.80;;;1.20;;
51925;SDS011;37952;51.938;15.480;2022-07-26T10:45:17;5.30;;;1.30;;
51925;SDS011;37952;51.938;15.480;2022-07-26T10:48:22;4.90;;;1.10;;
51925;SDS011;37952;51.938;15.480;2022-07-26T10:51:31;1.20;;;1.00;;
51925;SDS011;37952;51.938;15.480;2022-07-26T10:58:00;4.70;;;1.10;;
51925;SDS011;37952;51.938;15.480;2022-07-26T11:01:05;5.30;;;1.00;;
51925;SDS011;37952;51.938;15.480;2022-07-26T11:04:17;2.10;;;1.00;;
51925;SDS011;37952;51.938;15.480;2022-07-26T11:07:21;1.60;;;0.90;;
51925;SDS011;37952;51.938;15.480;2022-07-26T11:10:25;1.40;;;0.80;;
51925;SDS011;37952;51.938;15.480;2022-07-26T11:13:30;2.90;;;1.10;;
51925;SDS011;37952;51.938;15.480;2022-07-26T11:16:38;3.20;;;0.80;;
51925;SDS011;37952;51.938;15.480;2022-07-26T11:19:43;3.30;;;0.70;;
51925;SDS011;37952;51.938;15.480;2022-07-26T11:22:46;0.70;;;0.60;;
51925;SDS011;37952;51.938;15.480;2022-07-26T11:26:06;0.80;;;0.50;;
51925;SDS011;37952;51.938;15.480;2022-07-26T11:29:14;0.60;;;0.50;;
51925;SDS011;37952;51.938;15.480;2022-07-26T11:32:50;0.80;;;0.50;;
51925;SDS011;37952;51.938;15.480;2022-07-26T11:35:54;1.00;;;0.70;;
51925;SDS011;37952;51.938;15.480;2022-07-26T11:38:57;4.50;;;0.60;;
51925;SDS011;37952;51.938;15.480;2022-07-26T11:42:06;1.00;;;0.60;;
51925;SDS011;37952;51.938;15.480;2022-07-26T11:45:10;3.20;;;0.70;;
51925;SDS011;37952;51.938;15.480;2022-07-26T11:48:13;1.60;;;0.60;;
51925;SDS011;37952;51.938;15.480;2022-07-26T11:51:17;1.70;;;0.50;;
51925;SDS011;37952;51.938;15.480;2022-07-26T11:54:22;5.20;;;0.50;;
51925;SDS011;37952;51.938;15.480;2022-07-26T11:57:30;2.10;;;0.60;;
51925;SDS011;37952;51.938;15.480;2022-07-26T12:00:34;0.60;;;0.60;;
51925;SDS011;37952;51.938;15.480;2022-07-26T12:03:37;3.00;;;0.60;;
51925;SDS011;37952;51.938;15.480;2022-07-26T12:06:41;0.80;;;0.40;;
51925;SDS011;37952;51.938;15.480;2022-07-26T12:12:47;1.30;;;0.40;;
51925;SDS011;37952;51.938;15.480;2022-07-26T12:15:51;0.80;;;0.50;;
51925;SDS011;37952;51.938;15.480;2022-07-26T12:18:55;0.70;;;0.50;;
51925;SDS011;37952;51.938;15.480;2022-07-26T12:22:05;4.40;;;0.40;;
51925;SDS011;37952;51.938;15.480;2022-07-26T12:25:22;1.10;;;0.50;;
51925;SDS011;37952;51.938;15.480;2022-07-26T12:28:39;0.80;;;0.40;;
51925;SDS011;37952;51.938;15.480;2022-07-26T12:31:42;0.30;;;0.30;;
51925;SDS011;37952;51.938;15.480;2022-07-26T12:34:53;0.70;;;0.40;;
51925;SDS011;37952;51.938;15.480;2022-07-26T12:38:04;1.50;;;0.50;;
51925;SDS011;37952;51.938;15.480;2022-07-26T12:41:07;1.20;;;0.60;;
51925;SDS011;37952;51.938;15.480;2022-07-26T12:44:15;0.30;;;0.30;;
51925;SDS011;37952;51.938;15.480;2022-07-26T12:47:19;4.90;;;0.50;;
51925;SDS011;37952;51.938;15.480;2022-07-26T12:50:23;1.60;;;0.30;;
51925;SDS011;37952;51.938;15.480;2022-07-26T12:53:28;4.70;;;0.50;;
51925;SDS011;37952;51.938;15.480;2022-07-26T12:56:31;0.60;;;0.40;;
51925;SDS011;37952;51.938;15.480;2022-07-26T12:59:35;3.90;;;0.60;;
51925;SDS011;37952;51.938;15.480;2022-07-26T13:02:45;1.20;;;0.50;;
51925;SDS011;37952;51.938;15.480;2022-07-26T13:05:49;1.10;;;0.60;;
51925;SDS011;37952;51.938;15.480;2022-07-26T13:08:52;1.00;;;0.50;;
51925;SDS011;37952;51.938;15.480;2022-07-26T13:11:55;0.60;;;0.40;;
51925;SDS011;37952;51.938;15.480;2022-07-26T13:14:59;0.70;;;0.50;;
51925;SDS011;37952;51.938;15.480;2022-07-26T13:18:02;2.30;;;0.40;;
51925;SDS011;37952;51.938;15.480;2022-07-26T13:21:05;3.50;;;0.40;;
51925;SDS011;37952;51.938;15.480;2022-07-26T13:24:08;1.30;;;0.50;;
51925;SDS011;37952;51.938;15.480;2022-07-26T13:27:14;0.60;;;0.40;;
51925;SDS011;37952;51.938;15.480;2022-07-26T13:30:22;1.30;;;0.60;;
51925;SDS011;37952;51.938;15.480;2022-07-26T13:36:28;0.80;;;0.60;;
51925;SDS011;37952;51.938;15.480;2022-07-26T13:39:31;1.10;;;0.90;;
51925;SDS011;37952;51.938;15.480;2022-07-26T13:42:34;0.90;;;0.70;;
51925;SDS011;37952;51.938;15.480;2022-07-26T13:45:39;1.00;;;0.60;;
51925;SDS011;37952;51.938;15.480;2022-07-26T13:48:42;2.10;;;0.90;;
51925;SDS011;37952;51.938;15.480;2022-07-26T13:52:02;1.10;;;0.70;;
51925;SDS011;37952;51.938;15.480;2022-07-26T13:55:05;0.90;;;0.70;;
51925;SDS011;37952;51.938;15.480;2022-07-26T13:58:09;4.70;;;0.50;;
51925;SDS011;37952;51.938;15.480;2022-07-26T14:01:12;0.70;;;0.60;;
51925;SDS011;37952;51.938;15.480;2022-07-26T14:04:15;1.90;;;0.60;;
51925;SDS011;37952;51.938;15.480;2022-07-26T14:07:18;0.80;;;0.50;;
51925;SDS011;37952;51.938;15.480;2022-07-26T14:10:22;2.40;;;0.70;;
51925;SDS011;37952;51.938;15.480;2022-07-26T14:13:26;1.10;;;0.60;;
51925;SDS011;37952;51.938;15.480;2022-07-26T14:16:29;1.10;;;0.70;;
51925;SDS011;37952;51.938;15.480;2022-07-26T14:19:32;0.70;;;0.60;;
51925;SDS011;37952;51.938;15.480;2022-07-26T14:22:35;0.90;;;0.40;;
51925;SDS011;37952;51.938;15.480;2022-07-26T14:25:38;0.80;;;0.40;;
51925;SDS011;37952;51.938;15.480;2022-07-26T14:28:41;0.50;;;0.50;;
51925;SDS011;37952;51.938;15.480;2022-07-26T14:31:44;3.10;;;0.60;;
51925;SDS011;37952;51.938;15.480;2022-07-26T14:34:50;0.90;;;0.60;;
51925;SDS011;37952;51.938;15.480;2022-07-26T14:37:53;1.20;;;0.60;;
51925;SDS011;37952;51.938;15.480;2022-07-26T14:40:56;0.90;;;0.50;;
51925;SDS011;37952;51.938;15.480;2022-07-26T14:43:59;1.30;;;0.50;;
51925;SDS011;37952;51.938;15.480;2022-07-26T14:47:05;0.70;;;0.60;;
51925;SDS011;37952;51.938;15.480;2022-07-26T14:50:11;0.50;;;0.50;;
51925;SDS011;37952;51.938;15.480;2022-07-26T14:53:16;0.50;;;0.40;;
51925;SDS011;37952;51.938;15.480;2022-07-26T14:56:20;3.10;;;0.60;;
51925;SDS011;37952;51.938;15.480;2022-07-26T14:59:23;0.50;;;0.40;;
51925;SDS011;37952;51.938;15.480;2022-07-26T15:02:26;2.00;;;0.50;;
51925;SDS011;37952;51.938;15.480;2022-07-26T15:05:31;1.10;;;0.50;;
51925;SDS011;37952;51.938;15.480;2022-07-26T15:08:34;0.80;;;0.50;;
51925;SDS011;37952;51.938;15.480;2022-07-26T15:11:37;0.70;;;0.50;;
51925;SDS011;37952;51.938;15.480;2022-07-26T15:14:46;1.40;;;0.60;;
51925;SDS011;37952;51.938;15.480;2022-07-26T15:17:49;2.60;;;0.50;;
51925;SDS011;37952;51.938;15.480;2022-07-26T15:20:52;0.70;;;0.40;;
51925;SDS011;37952;51.938;15.480;2022-07-26T15:23:55;1.50;;;0.50;;
51925;SDS011;37952;51.938;15.480;2022-07-26T15:26:58;1.50;;;0.40;;
51925;SDS011;37952;51.938;15.480;2022-07-26T15:30:01;0.70;;;0.40;;
51925;SDS011;37952;51.938;15.480;2022-07-26T15:33:13;12.70;;;0.60;;
51925;SDS011;37952;51.938;15.480;2022-07-26T15:36:17;2.30;;;0.50;;
51925;SDS011;37952;51.938;15.480;2022-07-26T15:39:22;4.90;;;0.70;;
51925;SDS011;37952;51.938;15.480;2022-07-26T15:42:25;3.60;;;0.70;;
51925;SDS011;37952;51.938;15.480;2022-07-26T15:45:37;1.40;;;0.60;;
51925;SDS011;37952;51.938;15.480;2022-07-26T15:48:43;2.00;;;0.70;;
51925;SDS011;37952;51.938;15.480;2022-07-26T15:51:46;2.90;;;0.60;;
51925;SDS011;37952;51.938;15.480;2022-07-26T15:54:49;0.70;;;0.60;;
51925;SDS011;37952;51.938;15.480;2022-07-26T15:57:54;0.50;;;0.40;;
51925;SDS011;37952;51.938;15.480;2022-07-26T16:00:57;1.40;;;0.60;;
51925;SDS011;37952;51.938;15.480;2022-07-26T16:04:00;1.20;;;0.60;;
51925;SDS011;37952;51.938;15.480;2022-07-26T16:07:05;1.70;;;0.70;;
51925;SDS011;37952;51.938;15.480;2022-07-26T16:10:09;1.00;;;0.80;;
51925;SDS011;37952;51.938;15.480;2022-07-26T16:13:13;2.20;;;0.70;;
51925;SDS011;37952;51.938;15.480;2022-07-26T16:16:16;0.60;;;0.40;;
51925;SDS011;37952;51.938;15.480;2022-07-26T16:19:20;0.80;;;0.60;;
51925;SDS011;37952;51.938;15.480;2022-07-26T16:22:23;1.10;;;0.70;;
51925;SDS011;37952;51.938;15.480;2022-07-26T16:25:26;1.30;;;0.60;;
51925;SDS011;37952;51.938;15.480;2022-07-26T16:28:29;0.80;;;0.50;;
51925;SDS011;37952;51.938;15.480;2022-07-26T16:31:32;1.10;;;0.50;;
51925;SDS011;37952;51.938;15.480;2022-07-26T16:34:35;1.30;;;0.70;;
51925;SDS011;37952;51.938;15.480;2022-07-26T16:37:39;2.80;;;0.60;;
51925;SDS011;37952;51.938;15.480;2022-07-26T16:40:43;1.00;;;0.60;;
51925;SDS011;37952;51.938;15.480;2022-07-26T16:43:46;4.00;;;0.80;;
51925;SDS011;37952;51.938;15.480;2022-07-26T16:46:49;5.10;;;0.70;;
51925;SDS011;37952;51.938;15.480;2022-07-26T16:49:53;0.70;;;0.70;;
51925;SDS011;37952;51.938;15.480;2022-07-26T16:52:56;0.80;;;0.70;;
51925;SDS011;37952;51.938;15.480;2022-07-26T16:55:59;1.10;;;0.70;;
51925;SDS011;37952;51.938;15.480;2022-07-26T16:59:02;0.80;;;0.70;;
51925;SDS011;37952;51.938;15.480;2022-07-26T17:02:11;2.00;;;0.80;;
51925;SDS011;37952;51.938;15.480;2022-07-26T17:05:14;3.40;;;0.80;;
51925;SDS011;37952;51.938;15.480;2022-07-26T17:08:18;3.20;;;0.90;;
51925;SDS011;37952;51.938;15.480;2022-07-26T17:11:21;3.60;;;1.10;;
51925;SDS011;37952;51.938;15.480;2022-07-26T17:14:24;1.40;;;0.80;;
51925;SDS011;37952;51.938;15.480;2022-07-26T17:17:29;1.80;;;0.70;;
51925;SDS011;37952;51.938;15.480;2022-07-26T17:20:32;2.60;;;0.80;;
51925;SDS011;37952;51.938;15.480;2022-07-26T17:23:35;0.90;;;0.80;;
51925;SDS011;37952;51.938;15.480;2022-07-26T17:26:40;4.70;;;0.70;;
51925;SDS011;37952;51.938;15.480;2022-07-26T17:29:43;4.90;;;0.80;;
51925;SDS011;37952;51.938;15.480;2022-07-26T17:32:47;4.00;;;0.90;;
51925;SDS011;37952;51.938;15.480;2022-07-26T17:35:50;1.60;;;0.70;;
51925;SDS011;37952;51.938;15.480;2022-07-26T17:38:54;1.10;;;0.70;;
51925;SDS011;37952;51.938;15.480;2022-07-26T17:41:58;0.90;;;0.70;;
51925;SDS011;37952;51.938;15.480;2022-07-26T17:45:02;0.60;;;0.50;;
51925;SDS011;37952;51.938;15.480;2022-07-26T17:48:09;0.80;;;0.50;;
51925;SDS011;37952;51.938;15.480;2022-07-26T17:51:13;0.50;;;0.50;;
51925;SDS011;37952;51.938;15.480;2022-07-26T17:54:26;0.50;;;0.50;;
51925;SDS011;37952;51.938;15.480;2022-07-26T17:57:47;5.40;;;0.50;;
51925;SDS011;37952;51.938;15.480;2022-07-26T18:00:52;0.50;;;0.50;;
51925;SDS011;37952;51.938;15.480;2022-07-26T18:03:57;0.50;;;0.50;;
51925;SDS011;37952;51.938;15.480;2022-07-26T18:07:05;0.60;;;0.50;;
51925;SDS011;37952;51.938;15.480;2022-07-26T18:10:15;0.90;;;0.60;;
51925;SDS011;37952;51.938;15.480;2022-07-26T18:13:18;0.50;;;0.50;;
51925;SDS011;37952;51.938;15.480;2022-07-26T18:16:23;0.70;;;0.40;;
51925;SDS011;37952;51.938;15.480;2022-07-26T18:19:26;0.60;;;0.60;;
51925;SDS011;37952;51.938;15.480;2022-07-26T18:22:31;0.60;;;0.60;;
51925;SDS011;37952;51.938;15.480;2022-07-26T18:25:34;0.90;;;0.70;;
51925;SDS011;37952;51.938;15.480;2022-07-26T18:28:41;3.50;;;0.60;;